Time;durP1;ratioP1;P1;durP2;ratioP2;P2;SDS_P1;SDS_P2;PMS_P1;PMS_P2;Temp;Humidity;BMP_temperature;BMP_pressure;BME280_temperature;BME280_humidity;BME280_pressure;Samples;Min_cycle;Max_cycle;Signal;HPM_P1;HPM_P2
2022/09/23 00:01:01;;;;;;;0.90;0.90;;;;;6.80;96239.00;;;;5134864;27;20209;-61
2022/09/23 00:03:29;;;;;;;0.80;0.80;;;;;6.80;96244.00;;;;5134573;28;20189;-61
2022/09/23 00:05:59;;;;;;;0.87;0.87;;;;;6.80;96244.00;;;;5134499;28;20220;-61
2022/09/23 00:08:26;;;;;;;0.60;0.60;;;;;6.80;96247.00;;;;5117086;28;20228;-61
2022/09/23 00:10:54;;;;;;;0.87;0.87;;;;;6.70;96240.00;;;;5116316;28;20209;-61
2022/09/23 00:13:22;;;;;;;1.67;1.23;;;;;6.60;96235.00;;;;5134297;27;20257;-61
2022/09/23 00:15:49;;;;;;;0.70;0.70;;;;;6.70;96248.00;;;;5134378;28;20174;-61
2022/09/23 00:18:19;;;;;;;0.90;0.90;;;;;6.70;96241.00;;;;5116045;28;20240;-58
2022/09/23 00:20:46;;;;;;;0.93;0.90;;;;;6.80;96244.00;;;;5116404;28;20664;-61
2022/09/23 00:23:13;;;;;;;0.70;0.70;;;;;6.80;96244.00;;;;5134248;28;20513;-61
2022/09/23 00:25:40;;;;;;;1.00;1.00;;;;;6.90;96240.00;;;;5134133;28;20307;-60
2022/09/23 00:28:07;;;;;;;0.60;0.60;;;;;6.80;96240.00;;;;5134320;27;20212;-61
2022/09/23 00:30:34;;;;;;;0.60;0.60;;;;;6.90;96237.00;;;;5134359;27;20207;-62
2022/09/23 00:33:01;;;;;;;0.70;0.70;;;;;6.90;96231.00;;;;5134191;28;20229;-60
2022/09/23 00:35:28;;;;;;;0.93;0.93;;;;;6.90;96232.00;;;;5134331;28;20204;-62
2022/09/23 00:37:55;;;;;;;0.43;0.43;;;;;6.90;96236.00;;;;5116199;28;20232;-61
2022/09/23 00:40:22;;;;;;;0.80;0.80;;;;;6.80;96228.00;;;;5134106;28;20204;-62
2022/09/23 00:42:50;;;;;;;0.73;0.73;;;;;6.60;96229.00;;;;5115934;28;20208;-61
2022/09/23 00:45:18;;;;;;;0.93;0.93;;;;;6.50;96230.00;;;;5133874;28;20225;-61
2022/09/23 00:47:50;;;;;;;0.70;0.70;;;;;6.60;96219.00;;;;5133904;28;20204;-62
2022/09/23 00:50:26;;;;;;;0.80;0.80;;;;;6.50;96230.00;;;;5133941;27;20207;-62
2022/09/23 00:52:55;;;;;;;0.50;0.50;;;;;6.50;96220.00;;;;5133899;28;20627;-62
2022/09/23 00:55:26;;;;;;;0.90;0.90;;;;;6.50;96218.00;;;;5133816;27;20247;-62
2022/09/23 00:57:55;;;;;;;0.73;0.73;;;;;6.40;96211.00;;;;5136979;28;20193;-61
2022/09/23 01:00:23;;;;;;;0.80;0.80;;;;;6.40;96219.00;;;;5137256;27;20227;-60
2022/09/23 01:02:51;;;;;;;1.43;1.33;;;;;6.20;96221.00;;;;5137389;28;20269;-61
2022/09/23 01:05:20;;;;;;;1.00;1.00;;;;;6.20;96215.00;;;;5137145;28;20257;-60
2022/09/23 01:07:48;;;;;;;2.43;1.53;;;;;6.30;96215.00;;;;5119177;28;20200;-61
2022/09/23 01:10:17;;;;;;;0.70;0.70;;;;;6.50;96208.00;;;;5137388;27;20204;-59
2022/09/23 01:13:02;;;;;;;0.90;0.90;;;;;6.40;96203.00;;;;5137021;28;20676;-60
2022/09/23 01:15:38;;;;;;;1.03;0.83;;;;;6.40;96204.00;;;;5119149;28;20200;-61
2022/09/23 01:18:13;;;;;;;0.90;0.90;;;;;6.40;96201.00;;;;5136988;28;20220;-60
2022/09/23 01:21:01;;;;;;;1.00;1.00;;;;;6.20;96202.00;;;;5118884;28;20212;-60
2022/09/23 01:24:04;;;;;;;1.00;1.00;;;;;6.30;96206.00;;;;5137202;27;20604;-60
2022/09/23 01:27:00;;;;;;;1.27;1.20;;;;;6.30;96205.00;;;;5119932;28;20240;-60
2022/09/23 01:29:55;;;;;;;0.90;0.90;;;;;6.30;96203.00;;;;5136799;28;20238;-60
2022/09/23 01:32:31;;;;;;;0.70;0.70;;;;;6.20;96203.00;;;;5136917;27;20178;-60
2022/09/23 01:35:06;;;;;;;0.53;0.53;;;;;6.20;96193.00;;;;5136809;27;20205;-59
2022/09/23 01:37:43;;;;;;;0.60;0.60;;;;;6.10;96194.00;;;;5136861;28;20197;-60
2022/09/23 01:40:16;;;;;;;1.10;0.97;;;;;6.20;96194.00;;;;5136724;27;20217;-60
2022/09/23 01:42:47;;;;;;;0.50;0.50;;;;;6.30;96192.00;;;;5136634;27;20207;-61
2022/09/23 01:45:20;;;;;;;0.60;0.60;;;;;6.20;96189.00;;;;5136675;28;20235;-60
2022/09/23 01:47:53;;;;;;;0.70;0.70;;;;;6.20;96185.00;;;;5136625;27;20213;-60
2022/09/23 01:53:17;;;;;;;0.50;0.50;;;;;6.10;96180.00;;;;5136673;28;20201;-63
2022/09/23 01:55:50;;;;;;;1.57;0.90;;;;;6.10;96177.00;;;;5137019;28;20211;-63
2022/09/23 01:58:23;;;;;;;0.70;0.70;;;;;6.10;96171.00;;;;5136691;28;20208;-61
2022/09/23 02:00:54;;;;;;;0.60;0.60;;;;;6.20;96168.00;;;;5136572;28;20201;-60
2022/09/23 02:03:27;;;;;;;0.77;0.77;;;;;6.10;96170.00;;;;5118400;28;20207;-60
2022/09/23 02:06:00;;;;;;;0.77;0.77;;;;;6.00;96166.00;;;;5136289;27;20224;-60
2022/09/23 02:08:33;;;;;;;0.80;0.80;;;;;6.00;96169.00;;;;5135769;27;20284;-60
2022/09/23 02:11:04;;;;;;;0.73;0.73;;;;;6.00;96173.00;;;;5118012;28;20256;-58
2022/09/23 02:13:38;;;;;;;0.63;0.63;;;;;5.90;96163.00;;;;5136078;28;20577;-60
2022/09/23 02:16:13;;;;;;;0.60;0.60;;;;;5.90;96164.00;;;;5136217;27;20667;-60
2022/09/23 02:18:46;;;;;;;5.40;1.13;;;;;6.00;96164.00;;;;5136082;27;20215;-61
2022/09/23 02:21:16;;;;;;;0.83;0.83;;;;;5.90;96166.00;;;;5136150;28;20214;-60
2022/09/23 02:23:49;;;;;;;0.97;0.97;;;;;5.90;96167.00;;;;5136043;28;20499;-59
2022/09/23 02:26:21;;;;;;;1.10;1.10;;;;;5.90;96163.00;;;;5136185;27;20292;-59
2022/09/23 02:28:57;;;;;;;0.50;0.50;;;;;5.90;96164.00;;;;5136157;28;20293;-60
2022/09/23 02:31:36;;;;;;;0.80;0.80;;;;;5.90;96153.00;;;;5136217;28;20226;-60
2022/09/23 02:34:18;;;;;;;0.80;0.80;;;;;5.90;96153.00;;;;5135874;28;20189;-60
2022/09/23 02:36:55;;;;;;;1.90;1.80;;;;;5.80;96153.00;;;;5135877;28;20193;-60
2022/09/23 02:39:27;;;;;;;1.37;1.20;;;;;5.80;96163.00;;;;5135905;28;20209;-61
2022/09/23 02:42:01;;;;;;;1.13;1.13;;;;;5.70;96158.00;;;;5135621;27;20243;-61
2022/09/23 02:44:28;;;;;;;1.17;0.87;;;;;5.70;96155.00;;;;5117627;28;20536;-60
2022/09/23 02:46:55;;;;;;;0.90;0.90;;;;;5.50;96151.00;;;;5135445;28;20235;-60
2022/09/23 02:49:26;;;;;;;0.67;0.67;;;;;5.60;96157.00;;;;5135579;28;20219;-61
2022/09/23 02:51:54;;;;;;;0.70;0.70;;;;;5.60;96152.00;;;;5135371;28;20225;-59
2022/09/23 02:54:25;;;;;;;1.53;1.43;;;;;5.60;96154.00;;;;5135347;28;20252;-60
2022/09/23 02:56:53;;;;;;;0.83;0.83;;;;;5.60;96150.00;;;;5135593;28;20208;-60
2022/09/23 02:59:22;;;;;;;0.90;0.90;;;;;5.60;96140.00;;;;5135423;27;20193;-61
2022/09/23 03:02:12;;;;;;;1.13;1.10;;;;;5.80;96148.00;;;;5135429;28;20197;-60
2022/09/23 03:04:53;;;;;;;0.97;0.90;;;;;5.60;96144.00;;;;5135754;28;20539;-61
2022/09/23 03:07:24;;;;;;;0.70;0.70;;;;;5.60;96136.00;;;;5135395;28;20200;-60
2022/09/23 03:09:59;;;;;;;1.27;1.23;;;;;5.60;96140.00;;;;5135207;28;20578;-60
2022/09/23 03:12:34;;;;;;;0.53;0.53;;;;;5.40;96133.00;;;;5117313;28;20200;-61
2022/09/23 03:15:17;;;;;;;1.03;1.03;;;;;5.40;96054.00;;;;5135255;28;20244;-61
2022/09/23 03:17:50;;;;;;;0.60;0.60;;;;;5.30;96131.00;;;;5135392;28;20306;-60
2022/09/23 03:20:28;;;;;;;0.93;0.93;;;;;5.10;96130.00;;;;5134156;27;20541;-60
2022/09/23 03:22:59;;;;;;;0.70;0.70;;;;;5.10;96126.00;;;;5117180;28;20197;-59
2022/09/23 03:25:32;;;;;;;0.70;0.70;;;;;5.30;96120.00;;;;5135159;27;20306;-60
2022/09/23 03:28:01;;;;;;;0.70;0.70;;;;;5.30;96122.00;;;;5135279;28;20197;-61
2022/09/23 03:30:29;;;;;;;0.90;0.90;;;;;5.30;96130.00;;;;5134917;28;20208;-60
2022/09/23 03:32:59;;;;;;;1.70;1.30;;;;;5.30;96126.00;;;;5135717;28;20185;-61
2022/09/23 03:35:28;;;;;;;1.00;1.00;;;;;5.30;96121.00;;;;5135216;28;20200;-60
2022/09/23 03:38:01;;;;;;;2.90;1.03;;;;;5.40;96124.00;;;;5134923;28;20204;-59
2022/09/23 03:40:31;;;;;;;0.70;0.70;;;;;5.30;96129.00;;;;5135090;27;20209;-61
2022/09/23 03:43:00;;;;;;;0.60;0.60;;;;;5.10;96121.00;;;;5116721;27;20244;-59
2022/09/23 03:45:31;;;;;;;1.00;1.00;;;;;5.10;96129.00;;;;5134623;27;20215;-60
2022/09/23 03:47:58;;;;;;;0.50;0.50;;;;;5.20;96121.00;;;;5134859;28;20223;-61
2022/09/23 03:50:25;;;;;;;1.30;1.23;;;;;4.90;96118.00;;;;5134728;27;20205;-61
2022/09/23 03:52:52;;;;;;;1.23;0.97;;;;;5.00;96123.00;;;;5134791;28;20198;-61
2022/09/23 03:55:20;;;;;;;1.00;1.00;;;;;5.00;96119.00;;;;5134679;27;20219;-60
2022/09/23 03:57:46;;;;;;;1.33;1.33;;;;;4.90;96122.00;;;;5134503;28;20639;-61
2022/09/23 04:00:14;;;;;;;0.70;0.70;;;;;4.90;96116.00;;;;5134331;28;20735;-60
2022/09/23 04:02:42;;;;;;;1.10;1.00;;;;;4.90;96113.00;;;;5134373;28;20209;-60
2022/09/23 04:05:12;;;;;;;0.90;0.90;;;;;5.00;96116.00;;;;5134144;28;20220;-61
2022/09/23 04:07:41;;;;;;;1.03;1.03;;;;;5.00;96109.00;;;;5134301;28;20533;-60
2022/09/23 04:10:09;;;;;;;1.00;1.00;;;;;4.90;96119.00;;;;5134166;28;20622;-60
2022/09/23 04:12:38;;;;;;;1.37;1.27;;;;;4.80;96109.00;;;;5116043;28;20270;-60
2022/09/23 04:15:06;;;;;;;1.03;1.03;;;;;4.70;96102.00;;;;5134095;28;20281;-60
2022/09/23 04:17:32;;;;;;;0.70;0.70;;;;;4.80;96102.00;;;;5134178;27;20189;-61
2022/09/23 04:19:59;;;;;;;1.00;1.00;;;;;4.80;96110.00;;;;5133915;28;20224;-60
2022/09/23 04:22:26;;;;;;;0.70;0.70;;;;;4.60;96100.00;;;;5134138;28;20202;-60
2022/09/23 04:24:53;;;;;;;1.17;1.10;;;;;4.70;96097.00;;;;5115951;28;20224;-60
2022/09/23 04:27:20;;;;;;;1.20;1.17;;;;;4.80;96092.00;;;;5134058;28;20202;-60
2022/09/23 04:29:47;;;;;;;0.70;0.70;;;;;4.60;96098.00;;;;5115632;27;20872;-60
2022/09/23 04:32:14;;;;;;;0.77;0.77;;;;;4.70;96104.00;;;;5115659;28;20208;-60
2022/09/23 04:34:40;;;;;;;1.07;1.07;;;;;4.50;96096.00;;;;5133898;27;20544;-60
2022/09/23 04:37:09;;;;;;;0.80;0.80;;;;;4.60;96096.00;;;;5116014;28;20216;-60
2022/09/23 04:39:36;;;;;;;2.03;1.20;;;;;4.60;96097.00;;;;5133813;28;20218;-60
2022/09/23 04:42:06;;;;;;;0.77;0.77;;;;;4.70;96102.00;;;;5133799;27;20201;-60
2022/09/23 04:44:33;;;;;;;1.50;1.10;;;;;4.70;96091.00;;;;5133751;28;20221;-60
2022/09/23 04:47:00;;;;;;;0.80;0.80;;;;;4.60;96100.00;;;;5133862;28;20575;-60
2022/09/23 04:49:31;;;;;;;1.30;1.27;;;;;4.60;96098.00;;;;5133703;27;20281;-60
2022/09/23 04:51:58;;;;;;;1.10;1.10;;;;;4.50;96097.00;;;;5133691;28;20285;-60
2022/09/23 04:54:24;;;;;;;1.10;1.10;;;;;4.60;96102.00;;;;5133559;28;20206;-60
2022/09/23 04:56:51;;;;;;;0.97;0.97;;;;;4.70;96100.00;;;;5133611;27;20193;-60
2022/09/23 04:59:18;;;;;;;0.70;0.70;;;;;4.60;96106.00;;;;5133424;28;20237;-60
2022/09/23 05:01:46;;;;;;;0.90;0.90;;;;;4.60;96107.00;;;;5115344;27;20210;-60
2022/09/23 05:04:13;;;;;;;0.60;0.60;;;;;4.50;96098.00;;;;5115347;28;20209;-60
2022/09/23 05:06:42;;;;;;;1.40;1.13;;;;;4.50;96103.00;;;;5115636;28;20608;-60
2022/09/23 05:09:13;;;;;;;1.33;1.23;;;;;4.40;96108.00;;;;5133650;28;20254;-60
2022/09/23 05:11:39;;;;;;;0.83;0.83;;;;;4.60;96107.00;;;;5116010;28;20193;-60
2022/09/23 05:14:06;;;;;;;0.90;0.90;;;;;4.60;96107.00;;;;5133605;27;20194;-60
2022/09/23 05:16:34;;;;;;;0.70;0.70;;;;;4.60;96112.00;;;;5133319;27;20512;-60
2022/09/23 05:19:02;;;;;;;0.70;0.70;;;;;4.60;96119.00;;;;5133404;27;20205;-60
2022/09/23 05:21:30;;;;;;;0.83;0.83;;;;;4.50;96112.00;;;;5133239;28;20636;-60
2022/09/23 05:23:59;;;;;;;0.70;0.70;;;;;4.50;96110.00;;;;5115021;28;20197;-60
2022/09/23 05:26:28;;;;;;;0.53;0.53;;;;;4.50;96112.00;;;;5133255;28;20209;-60
2022/09/23 05:28:55;;;;;;;0.70;0.70;;;;;4.50;96115.00;;;;5133174;28;20201;-60
2022/09/23 05:31:25;;;;;;;0.60;0.60;;;;;4.60;96117.00;;;;5133181;28;20283;-60
2022/09/23 05:33:54;;;;;;;0.90;0.90;;;;;4.50;96112.00;;;;5133160;28;20639;-57
2022/09/23 05:36:25;;;;;;;0.77;0.77;;;;;4.60;96106.00;;;;5114935;28;20680;-60
2022/09/23 05:38:52;;;;;;;0.60;0.60;;;;;4.70;96112.00;;;;5133190;28;20193;-60
2022/09/23 05:41:21;;;;;;;0.70;0.70;;;;;4.70;96105.00;;;;5133289;27;20221;-62
2022/09/23 05:43:49;;;;;;;0.83;0.83;;;;;4.70;96109.00;;;;5117729;28;20629;-60
2022/09/23 05:46:18;;;;;;;1.83;1.73;;;;;4.80;96105.00;;;;5136211;27;20307;-60
2022/09/23 05:48:46;;;;;;;0.70;0.70;;;;;4.90;96110.00;;;;5136496;28;20247;-60
2022/09/23 05:51:16;;;;;;;0.70;0.70;;;;;5.00;96105.00;;;;5118442;28;20521;-61
2022/09/23 05:53:45;;;;;;;1.90;1.07;;;;;5.00;96111.00;;;;5118587;28;20205;-60
2022/09/23 05:56:12;;;;;;;0.83;0.83;;;;;5.10;96120.00;;;;5118407;28;20308;-61
2022/09/23 05:58:39;;;;;;;0.70;0.70;;;;;5.10;96108.00;;;;5118330;28;20231;-63
2022/09/23 06:01:10;;;;;;;1.50;1.47;;;;;5.10;96119.00;;;;5136336;28;20318;-64
2022/09/23 06:03:37;;;;;;;0.80;0.80;;;;;5.00;96111.00;;;;5136703;28;20194;-61
2022/09/23 06:06:11;;;;;;;0.97;0.97;;;;;4.90;96112.00;;;;5136203;28;20221;-61
2022/09/23 06:08:38;;;;;;;0.90;0.90;;;;;5.10;96121.00;;;;5136428;27;20198;-61
2022/09/23 06:11:07;;;;;;;1.10;1.10;;;;;5.10;96106.00;;;;5136084;28;20546;-60
2022/09/23 06:13:37;;;;;;;0.60;0.60;;;;;5.40;96109.00;;;;5136305;28;20262;-62
2022/09/23 06:16:06;;;;;;;0.77;0.77;;;;;5.50;96105.00;;;;5118364;28;20226;-57
2022/09/23 06:18:33;;;;;;;1.17;1.17;;;;;5.60;96104.00;;;;5135940;28;20209;-62
2022/09/23 06:21:03;;;;;;;0.70;0.70;;;;;5.70;96109.00;;;;5136085;28;20190;-62
2022/09/23 06:23:30;;;;;;;0.70;0.70;;;;;5.70;96102.00;;;;5136155;28;20192;-63
2022/09/23 06:26:01;;;;;;;0.90;0.90;;;;;5.80;96102.00;;;;5136040;27;20227;-65
2022/09/23 06:28:30;;;;;;;0.80;0.80;;;;;6.00;96101.00;;;;5135921;27;20656;-63
2022/09/23 06:31:02;;;;;;;0.90;0.90;;;;;6.10;96105.00;;;;5136039;28;20653;-62
2022/09/23 06:33:29;;;;;;;0.50;0.50;;;;;6.00;96095.00;;;;5135900;28;20661;-65
2022/09/23 06:35:57;;;;;;;1.00;1.00;;;;;6.00;96098.00;;;;5136010;27;20223;-63
2022/09/23 06:38:24;;;;;;;0.80;0.80;;;;;6.20;96092.00;;;;5135928;27;20194;-61
2022/09/23 06:40:51;;;;;;;0.60;0.60;;;;;6.20;96086.00;;;;5135817;28;20196;-60
2022/09/23 06:43:18;;;;;;;0.50;0.50;;;;;6.30;96089.00;;;;5135833;28;20201;-62
2022/09/23 06:45:45;;;;;;;0.60;0.60;;;;;6.60;96091.00;;;;5135584;27;20236;-63
2022/09/23 06:48:12;;;;;;;1.90;1.23;;;;;6.70;96086.00;;;;5135767;27;20189;-61
2022/09/23 06:50:39;;;;;;;0.90;0.90;;;;;6.80;96098.00;;;;5135740;28;20193;-63
2022/09/23 06:53:06;;;;;;;0.80;0.80;;;;;6.90;96094.00;;;;5135983;27;20192;-63
2022/09/23 06:55:32;;;;;;;0.77;0.77;;;;;7.00;96086.00;;;;5135817;27;20201;-63
2022/09/23 06:57:59;;;;;;;0.70;0.70;;;;;7.00;96090.00;;;;5135513;28;20232;-64
2022/09/23 07:00:28;;;;;;;1.03;1.00;;;;;7.30;96089.00;;;;5135704;27;20193;-63
2022/09/23 07:02:55;;;;;;;0.97;0.97;;;;;7.40;96094.00;;;;5135534;27;20213;-62
2022/09/23 07:05:24;;;;;;;0.97;0.97;;;;;7.60;96092.00;;;;5135517;28;20638;-63
2022/09/23 07:07:52;;;;;;;0.73;0.73;;;;;7.50;96093.00;;;;5135476;28;20185;-63
2022/09/23 07:10:19;;;;;;;1.57;1.47;;;;;7.70;96093.00;;;;5135325;27;20207;-63
2022/09/23 07:12:46;;;;;;;2.83;2.60;;;;;7.90;96090.00;;;;5135465;27;20265;-61
2022/09/23 07:15:14;;;;;;;1.30;1.30;;;;;7.90;96095.00;;;;5135263;28;20216;-63
2022/09/23 07:17:42;;;;;;;0.83;0.83;;;;;8.10;96101.00;;;;5135263;28;20190;-63
2022/09/23 07:20:10;;;;;;;1.27;1.17;;;;;8.30;96097.00;;;;5135154;28;20221;-63
2022/09/23 07:22:37;;;;;;;3.77;1.33;;;;;8.50;96097.00;;;;5135172;28;20526;-63
2022/09/23 07:25:05;;;;;;;0.90;0.90;;;;;8.50;96090.00;;;;5135152;27;20227;-63
2022/09/23 07:27:32;;;;;;;1.97;1.87;;;;;8.50;96095.00;;;;5135121;28;20221;-60
2022/09/23 07:30:01;;;;;;;1.17;1.17;;;;;8.70;96086.00;;;;5135025;27;20345;-63
2022/09/23 07:32:28;;;;;;;0.93;0.93;;;;;8.80;96091.00;;;;5134790;28;20683;-63
2022/09/23 07:34:56;;;;;;;2.23;0.87;;;;;8.90;96098.00;;;;5134984;28;20245;-63
2022/09/23 07:37:23;;;;;;;1.23;1.23;;;;;9.10;96101.00;;;;5134970;28;20229;-63
2022/09/23 07:39:50;;;;;;;0.70;0.70;;;;;9.10;96104.00;;;;5134944;28;20205;-63
2022/09/23 07:42:17;;;;;;;0.93;0.93;;;;;9.10;96095.00;;;;5134931;28;20649;-63
2022/09/23 07:44:46;;;;;;;0.83;0.83;;;;;9.10;96099.00;;;;5134886;28;20228;-63
2022/09/23 07:47:13;;;;;;;1.27;1.17;;;;;9.20;96098.00;;;;5134708;28;20221;-63
2022/09/23 07:49:39;;;;;;;0.87;0.87;;;;;9.40;96100.00;;;;5134774;28;20221;-63
2022/09/23 07:52:07;;;;;;;0.90;0.90;;;;;9.60;96101.00;;;;5116549;28;20205;-62
2022/09/23 07:54:34;;;;;;;1.40;1.27;;;;;9.90;96102.00;;;;5134618;28;20268;-63
2022/09/23 07:57:03;;;;;;;0.60;0.60;;;;;10.00;96108.00;;;;5134711;27;20726;-62
2022/09/23 07:59:32;;;;;;;0.70;0.70;;;;;10.10;96102.00;;;;5134704;27;20662;-64
2022/09/23 08:01:59;;;;;;;2.83;1.10;;;;;10.20;96113.00;;;;5134468;28;20228;-63
2022/09/23 08:04:29;;;;;;;0.90;0.90;;;;;10.30;96107.00;;;;5134499;27;20208;-63
2022/09/23 08:06:57;;;;;;;1.20;0.80;;;;;10.40;96110.00;;;;5115878;28;20626;-63
2022/09/23 08:09:27;;;;;;;0.77;0.77;;;;;10.40;96113.00;;;;5116373;28;20501;-63
2022/09/23 08:11:54;;;;;;;0.50;0.50;;;;;10.50;96094.00;;;;5134403;27;20766;-63
2022/09/23 08:14:21;;;;;;;0.80;0.80;;;;;10.60;96112.00;;;;5134390;28;20197;-63
2022/09/23 08:16:48;;;;;;;0.60;0.60;;;;;10.70;96114.00;;;;5134406;27;20543;-63
2022/09/23 08:19:15;;;;;;;1.27;1.23;;;;;10.90;96108.00;;;;5134225;27;20228;-63
2022/09/23 08:21:43;;;;;;;0.90;0.90;;;;;11.10;96114.00;;;;5134234;27;20717;-63
2022/09/23 08:24:12;;;;;;;0.77;0.77;;;;;10.90;96110.00;;;;5134096;27;20296;-63
2022/09/23 08:26:40;;;;;;;0.60;0.60;;;;;10.90;96108.00;;;;5133992;28;20290;-63
2022/09/23 08:29:09;;;;;;;0.70;0.70;;;;;11.10;96116.00;;;;5134141;28;20215;-63
2022/09/23 08:31:35;;;;;;;0.87;0.87;;;;;11.30;96117.00;;;;5134127;28;20181;-63
2022/09/23 08:34:02;;;;;;;1.57;1.47;;;;;11.50;96117.00;;;;5134121;28;20231;-63
2022/09/23 08:36:30;;;;;;;0.83;0.83;;;;;11.70;96108.00;;;;5133928;27;20213;-62
2022/09/23 08:38:57;;;;;;;0.80;0.80;;;;;11.70;96106.00;;;;5133971;28;20205;-65
2022/09/23 08:41:33;;;;;;;0.70;0.70;;;;;11.80;96109.00;;;;5133854;28;20231;-63
2022/09/23 08:44:07;;;;;;;1.30;1.23;;;;;11.80;96104.00;;;;5134100;28;20208;-63
2022/09/23 08:46:40;;;;;;;0.60;0.60;;;;;12.00;96101.00;;;;5133990;27;20786;-63
2022/09/23 08:49:10;;;;;;;0.80;0.80;;;;;12.20;96100.00;;;;5134041;28;20275;-63
2022/09/23 08:51:44;;;;;;;1.00;1.00;;;;;12.10;96100.00;;;;5133944;28;20249;-63
2022/09/23 08:54:12;;;;;;;0.57;0.57;;;;;12.20;96109.00;;;;5134042;27;20188;-63
2022/09/23 08:56:45;;;;;;;0.67;0.67;;;;;12.20;96104.00;;;;5133703;28;20304;-62
2022/09/23 08:59:18;;;;;;;0.60;0.60;;;;;12.30;96100.00;;;;5133937;27;20225;-63
2022/09/23 09:01:48;;;;;;;0.70;0.70;;;;;12.40;96104.00;;;;5134069;28;20536;-63
2022/09/23 09:04:20;;;;;;;0.87;0.87;;;;;12.50;96109.00;;;;5133908;27;20201;-61
2022/09/23 09:06:52;;;;;;;0.67;0.67;;;;;12.70;96104.00;;;;5134219;28;20294;-63
2022/09/23 09:09:27;;;;;;;0.80;0.80;;;;;12.90;96104.00;;;;5134028;28;20261;-61
2022/09/23 09:12:01;;;;;;;1.00;1.00;;;;;13.20;96100.00;;;;5133768;27;20215;-61
2022/09/23 09:14:36;;;;;;;0.40;0.40;;;;;13.50;96098.00;;;;5133764;27;20263;-63
2022/09/23 09:17:07;;;;;;;0.70;0.70;;;;;13.80;96085.00;;;;5133797;27;20220;-64
2022/09/23 09:19:55;;;;;;;1.03;1.03;;;;;14.00;96093.00;;;;5119090;28;20200;-63
2022/09/23 09:22:36;;;;;;;0.60;0.60;;;;;14.10;96085.00;;;;5137095;27;20225;-63
2022/09/23 09:25:14;;;;;;;1.87;1.73;;;;;14.30;96089.00;;;;5137190;27;20188;-63
2022/09/23 09:27:41;;;;;;;0.87;0.87;;;;;14.20;96085.00;;;;5136969;28;20471;-63
2022/09/23 09:30:13;;;;;;;0.93;0.93;;;;;14.40;96085.00;;;;5137118;27;20209;-63
2022/09/23 09:32:47;;;;;;;0.60;0.60;;;;;14.70;96078.00;;;;5136997;28;20193;-64
2022/09/23 09:35:22;;;;;;;1.27;1.17;;;;;14.50;96072.00;;;;5136807;27;20606;-63
2022/09/23 09:37:49;;;;;;;0.50;0.50;;;;;14.70;96078.00;;;;5136844;28;20189;-63
2022/09/23 09:40:16;;;;;;;0.83;0.83;;;;;15.00;96070.00;;;;5136726;28;20213;-63
2022/09/23 09:42:47;;;;;;;0.50;0.50;;;;;15.20;96067.00;;;;5136851;27;20193;-63
2022/09/23 09:45:25;;;;;;;0.60;0.60;;;;;15.20;96071.00;;;;5136748;28;20213;-63
2022/09/23 09:48:02;;;;;;;0.70;0.70;;;;;15.40;96068.00;;;;5136749;27;20193;-63
2022/09/23 09:50:47;;;;;;;0.57;0.57;;;;;15.80;96070.00;;;;5136773;28;20213;-63
2022/09/23 09:53:21;;;;;;;1.10;1.10;;;;;15.40;96063.00;;;;5136690;27;20181;-62
2022/09/23 09:56:02;;;;;;;0.90;0.90;;;;;15.50;96063.00;;;;5136649;28;20192;-63
2022/09/23 09:58:42;;;;;;;0.70;0.70;;;;;15.80;96060.00;;;;5136818;27;20299;-64
2022/09/23 10:01:18;;;;;;;1.40;1.30;;;;;15.80;96062.00;;;;5118260;27;20517;-63
2022/09/23 10:03:46;;;;;;;1.23;0.83;;;;;15.90;96054.00;;;;5136508;28;20292;-63
2022/09/23 10:06:16;;;;;;;0.83;0.83;;;;;16.10;96058.00;;;;5136614;28;20236;-65
2022/09/23 10:09:01;;;;;;;1.10;1.10;;;;;16.10;96058.00;;;;5118184;28;20225;-64
2022/09/23 10:11:29;;;;;;;0.80;0.80;;;;;16.00;96057.00;;;;5136388;27;20215;-63
2022/09/23 10:14:03;;;;;;;1.13;1.00;;;;;16.20;96052.00;;;;5136114;27;20248;-63
2022/09/23 10:16:33;;;;;;;1.57;1.47;;;;;16.20;96053.00;;;;5136270;28;20276;-64
2022/09/23 10:19:01;;;;;;;0.50;0.50;;;;;16.20;96054.00;;;;5136125;28;20200;-64
2022/09/23 10:21:34;;;;;;;0.80;0.80;;;;;16.10;96051.00;;;;5136106;28;20253;-63
2022/09/23 10:24:03;;;;;;;0.70;0.70;;;;;16.30;96043.00;;;;5136209;28;20189;-64
2022/09/23 10:26:32;;;;;;;0.60;0.60;;;;;16.70;96039.00;;;;5136074;27;20228;-64
2022/09/23 10:29:01;;;;;;;0.87;0.87;;;;;17.00;96033.00;;;;5135955;27;20761;-64
2022/09/23 10:31:31;;;;;;;0.53;0.53;;;;;17.30;96033.00;;;;5136044;27;20221;-64
2022/09/23 10:33:59;;;;;;;0.53;0.53;;;;;17.30;96029.00;;;;5117990;28;20205;-64
2022/09/23 10:36:28;;;;;;;2.27;1.07;;;;;17.30;96030.00;;;;5136140;28;20538;-65
2022/09/23 10:46:36;;;;;;;0.50;0.50;;;;;17.60;96019.00;;;;5136277;28;20196;-65
2022/09/23 10:47:50;;;;;;;0.50;0.50;;;;;18.20;96019.00;;;;5135732;28;20239;-63
2022/09/23 10:50:38;;;;;;;0.47;0.47;;;;;18.10;96016.00;;;;5135646;27;20216;-64
2022/09/23 10:53:17;;;;;;;0.70;0.70;;;;;18.20;96011.00;;;;5135646;28;20265;-62
2022/09/23 10:56:02;;;;;;;0.70;0.70;;;;;18.80;96006.00;;;;5135744;28;20253;-61
2022/09/23 10:58:57;;;;;;;1.03;1.03;;;;;18.80;96010.00;;;;5135543;28;20258;-63
2022/09/23 11:01:33;;;;;;;0.77;0.77;;;;;18.60;96006.00;;;;5084381;28;20213;-64
2022/09/23 11:04:36;;;;;;;0.60;0.60;;;;;19.00;95997.00;;;;5135481;28;20178;-64
2022/09/23 11:07:17;;;;;;;0.50;0.50;;;;;19.40;96001.00;;;;5117397;28;20301;-63
2022/09/23 11:10:08;;;;;;;0.60;0.60;;;;;19.60;95999.00;;;;5135570;28;20291;-63
2022/09/23 11:12:46;;;;;;;0.90;0.90;;;;;19.70;96008.00;;;;5135372;28;20224;-64
2022/09/23 11:15:29;;;;;;;0.77;0.77;;;;;19.90;96000.00;;;;5135705;27;20268;-67
2022/09/23 11:18:22;;;;;;;0.87;0.87;;;;;20.10;95993.00;;;;5117080;28;20594;-64
2022/09/23 11:21:00;;;;;;;1.47;1.37;;;;;20.10;95988.00;;;;5124246;28;20676;-63
2022/09/23 11:23:53;;;;;;;0.60;0.60;;;;;20.50;95984.00;;;;5135321;28;20236;-64
2022/09/23 11:26:33;;;;;;;0.60;0.60;;;;;20.40;95982.00;;;;5135187;27;20217;-64
2022/09/23 11:29:32;;;;;;;0.40;0.40;;;;;20.90;95982.00;;;;5117072;28;20280;-64
2022/09/23 11:32:22;;;;;;;0.50;0.50;;;;;21.10;95986.00;;;;5135092;27;20266;-62
2022/09/23 11:35:01;;;;;;;0.60;0.60;;;;;21.20;96008.00;;;;5135090;28;20250;-63
2022/09/23 11:37:34;;;;;;;0.50;0.50;;;;;20.90;95978.00;;;;5135260;28;20201;-64
2022/09/23 11:40:04;;;;;;;0.70;0.70;;;;;20.70;95980.00;;;;5134246;27;20178;-63
2022/09/23 11:42:36;;;;;;;0.70;0.70;;;;;20.80;95978.00;;;;5135280;27;20265;-63
2022/09/23 11:45:13;;;;;;;1.00;1.00;;;;;21.20;95976.00;;;;5135364;27;20284;-64
2022/09/23 11:47:45;;;;;;;0.80;0.80;;;;;21.40;95996.00;;;;5134787;27;20229;-64
2022/09/23 11:50:19;;;;;;;0.60;0.60;;;;;20.80;95974.00;;;;5134836;27;20257;-64
2022/09/23 11:52:57;;;;;;;0.50;0.50;;;;;21.50;95970.00;;;;5134702;27;20626;-64
2022/09/23 11:55:31;;;;;;;0.60;0.60;;;;;21.70;95973.00;;;;5134805;27;20197;-63
2022/09/23 11:58:02;;;;;;;0.63;0.63;;;;;21.60;95976.00;;;;5134731;27;20243;-64
2022/09/23 12:00:37;;;;;;;0.57;0.57;;;;;21.70;95981.00;;;;5134723;28;20283;-62
2022/09/23 12:03:12;;;;;;;0.70;0.70;;;;;21.30;95977.00;;;;5134576;28;20271;-63
2022/09/23 12:05:43;;;;;;;0.37;0.37;;;;;21.60;95978.00;;;;5134745;28;20346;-63
2022/09/23 12:08:18;;;;;;;1.90;1.07;;;;;22.10;95973.00;;;;5134544;27;20201;-66
2022/09/23 12:10:52;;;;;;;0.60;0.60;;;;;21.60;95966.00;;;;5134602;28;20213;-66
2022/09/23 12:13:26;;;;;;;0.87;0.87;;;;;21.90;95966.00;;;;5134636;28;20281;-64
2022/09/23 12:16:16;;;;;;;0.70;0.70;;;;;22.10;95955.00;;;;5134354;27;20248;-63
2022/09/23 12:18:55;;;;;;;12.73;1.23;;;;;22.60;95958.00;;;;5134359;28;20288;-64
2022/09/23 12:21:52;;;;;;;0.68;0.68;;;;;22.50;95963.00;;;;5134570;28;20303;-65
2022/09/23 12:24:46;;;;;;;0.70;0.70;;;;;23.20;95966.00;;;;5134475;28;20276;-63
2022/09/23 12:27:23;;;;;;;0.80;0.80;;;;;22.70;95953.00;;;;5134131;27;20221;-65
2022/09/23 12:29:55;;;;;;;0.45;0.45;;;;;23.30;95959.00;;;;5134225;27;20192;-65
2022/09/23 12:32:23;;;;;;;0.68;0.68;;;;;23.20;95964.00;;;;5134186;28;20548;-66
2022/09/23 12:34:53;;;;;;;0.65;0.65;;;;;23.30;95954.00;;;;5134391;28;20193;-64
2022/09/23 12:37:26;;;;;;;1.58;1.27;;;;;23.80;95956.00;;;;5134241;27;20648;-66
2022/09/23 12:39:58;;;;;;;0.40;0.40;;;;;23.90;95950.00;;;;5115833;28;20221;-64
2022/09/23 12:42:28;;;;;;;0.80;0.80;;;;;23.70;95957.00;;;;5134478;27;20192;-66
2022/09/23 12:45:17;;;;;;;1.13;1.13;;;;;23.80;95963.00;;;;5115901;28;20648;-64
2022/09/23 12:47:44;;;;;;;0.80;0.80;;;;;23.70;95958.00;;;;5134125;28;20221;-64
2022/09/23 12:50:47;;;;;;;0.43;0.43;;;;;23.60;95948.00;;;;5133935;28;20204;-64
2022/09/23 12:53:51;;;;;;;0.60;0.60;;;;;23.10;95950.00;;;;5116264;28;20208;-63
2022/09/23 12:56:21;;;;;;;1.55;1.45;;;;;23.00;95957.00;;;;5137467;28;20247;-65